sensor_id;sensor_type;location;lat;lon;timestamp;P1;durP1;ratioP1;P2;durP2;ratioP2
8060;SDS011;4073;42.626;25.386;2023-01-16T00:00:27;16.20;;;14.13;;
8060;SDS011;4073;42.626;25.386;2023-01-16T00:02:53;21.43;;;15.87;;
8060;SDS011;4073;42.626;25.386;2023-01-16T00:05:18;18.73;;;15.73;;
8060;SDS011;4073;42.626;25.386;2023-01-16T00:07:44;19.03;;;14.40;;
8060;SDS011;4073;42.626;25.386;2023-01-16T00:10:09;18.93;;;14.43;;
8060;SDS011;4073;42.626;25.386;2023-01-16T00:12:35;17.07;;;12.53;;
8060;SDS011;4073;42.626;25.386;2023-01-16T00:15:00;16.07;;;13.30;;
8060;SDS011;4073;42.626;25.386;2023-01-16T00:17:26;17.47;;;13.83;;
8060;SDS011;4073;42.626;25.386;2023-01-16T00:19:51;16.80;;;12.87;;
8060;SDS011;4073;42.626;25.386;2023-01-16T00:22:17;16.77;;;12.97;;
8060;SDS011;4073;42.626;25.386;2023-01-16T00:24:42;22.87;;;17.57;;
8060;SDS011;4073;42.626;25.386;2023-01-16T00:27:08;20.40;;;16.40;;
8060;SDS011;4073;42.626;25.386;2023-01-16T00:29:33;19.07;;;13.37;;
8060;SDS011;4073;42.626;25.386;2023-01-16T00:31:59;17.67;;;14.77;;
8060;SDS011;4073;42.626;25.386;2023-01-16T00:34:25;19.70;;;16.60;;
8060;SDS011;4073;42.626;25.386;2023-01-16T00:36:50;20.40;;;15.00;;
8060;SDS011;4073;42.626;25.386;2023-01-16T00:39:16;19.07;;;16.33;;
8060;SDS011;4073;42.626;25.386;2023-01-16T00:41:41;21.33;;;15.83;;
8060;SDS011;4073;42.626;25.386;2023-01-16T00:44:07;23.47;;;19.03;;
8060;SDS011;4073;42.626;25.386;2023-01-16T00:46:32;22.43;;;17.80;;
8060;SDS011;4073;42.626;25.386;2023-01-16T00:48:58;25.40;;;20.40;;
8060;SDS011;4073;42.626;25.386;2023-01-16T00:51:23;26.57;;;20.70;;
8060;SDS011;4073;42.626;25.386;2023-01-16T00:53:49;26.90;;;20.20;;
8060;SDS011;4073;42.626;25.386;2023-01-16T00:56:14;25.53;;;19.80;;
8060;SDS011;4073;42.626;25.386;2023-01-16T00:58:40;47.67;;;33.57;;
8060;SDS011;4073;42.626;25.386;2023-01-16T01:01:05;37.17;;;29.10;;
8060;SDS011;4073;42.626;25.386;2023-01-16T01:03:31;25.97;;;21.13;;
8060;SDS011;4073;42.626;25.386;2023-01-16T01:05:57;22.83;;;17.77;;
8060;SDS011;4073;42.626;25.386;2023-01-16T01:08:22;19.77;;;15.10;;
8060;SDS011;4073;42.626;25.386;2023-01-16T01:10:48;27.40;;;21.80;;
8060;SDS011;4073;42.626;25.386;2023-01-16T01:13:13;41.03;;;31.33;;
8060;SDS011;4073;42.626;25.386;2023-01-16T01:15:39;24.50;;;18.60;;
8060;SDS011;4073;42.626;25.386;2023-01-16T01:18:04;23.90;;;19.50;;
8060;SDS011;4073;42.626;25.386;2023-01-16T01:20:30;26.40;;;17.77;;
8060;SDS011;4073;42.626;25.386;2023-01-16T01:22:55;23.37;;;18.43;;
8060;SDS011;4073;42.626;25.386;2023-01-16T01:25:21;21.90;;;17.47;;
8060;SDS011;4073;42.626;25.386;2023-01-16T01:27:47;21.63;;;16.17;;
8060;SDS011;4073;42.626;25.386;2023-01-16T01:30:12;20.10;;;15.53;;
8060;SDS011;4073;42.626;25.386;2023-01-16T01:32:38;18.17;;;12.97;;
8060;SDS011;4073;42.626;25.386;2023-01-16T01:35:07;20.13;;;14.43;;
8060;SDS011;4073;42.626;25.386;2023-01-16T01:37:33;24.33;;;14.87;;
8060;SDS011;4073;42.626;25.386;2023-01-16T01:40:00;21.43;;;16.47;;
8060;SDS011;4073;42.626;25.386;2023-01-16T01:42:26;22.13;;;17.10;;
8060;SDS011;4073;42.626;25.386;2023-01-16T01:47:51;25.83;;;18.47;;
8060;SDS011;4073;42.626;25.386;2023-01-16T01:53:17;27.37;;;19.93;;
8060;SDS011;4073;42.626;25.386;2023-01-16T01:55:47;27.70;;;19.33;;
8060;SDS011;4073;42.626;25.386;2023-01-16T01:58:15;22.20;;;17.00;;
8060;SDS011;4073;42.626;25.386;2023-01-16T02:00:50;21.33;;;16.83;;
8060;SDS011;4073;42.626;25.386;2023-01-16T02:03:32;30.27;;;18.07;;
8060;SDS011;4073;42.626;25.386;2023-01-16T02:06:04;21.93;;;16.23;;
8060;SDS011;4073;42.626;25.386;2023-01-16T02:08:33;13.90;;;12.40;;
8060;SDS011;4073;42.626;25.386;2023-01-16T02:11:05;22.93;;;17.97;;
8060;SDS011;4073;42.626;25.386;2023-01-16T02:13:34;16.50;;;13.90;;
8060;SDS011;4073;42.626;25.386;2023-01-16T02:16:02;21.20;;;14.73;;
8060;SDS011;4073;42.626;25.386;2023-01-16T02:18:48;15.33;;;11.93;;
8060;SDS011;4073;42.626;25.386;2023-01-16T02:24:39;14.53;;;11.17;;
8060;SDS011;4073;42.626;25.386;2023-01-16T02:32:54;12.80;;;9.80;;
8060;SDS011;4073;42.626;25.386;2023-01-16T02:38:37;16.80;;;10.87;;
8060;SDS011;4073;42.626;25.386;2023-01-16T02:41:18;15.90;;;10.43;;
8060;SDS011;4073;42.626;25.386;2023-01-16T02:43:57;13.20;;;10.17;;
8060;SDS011;4073;42.626;25.386;2023-01-16T02:46:38;14.97;;;11.87;;
8060;SDS011;4073;42.626;25.386;2023-01-16T02:52:32;14.20;;;10.53;;
8060;SDS011;4073;42.626;25.386;2023-01-16T02:55:10;15.50;;;10.70;;
8060;SDS011;4073;42.626;25.386;2023-01-16T02:57:57;14.47;;;11.27;;
8060;SDS011;4073;42.626;25.386;2023-01-16T03:00:26;17.93;;;12.53;;
8060;SDS011;4073;42.626;25.386;2023-01-16T03:02:53;15.90;;;11.90;;
8060;SDS011;4073;42.626;25.386;2023-01-16T03:05:18;17.90;;;12.47;;
8060;SDS011;4073;42.626;25.386;2023-01-16T03:13:20;15.83;;;11.70;;
8060;SDS011;4073;42.626;25.386;2023-01-16T03:18:39;15.07;;;12.17;;
8060;SDS011;4073;42.626;25.386;2023-01-16T03:21:48;14.33;;;11.43;;
8060;SDS011;4073;42.626;25.386;2023-01-16T03:32:21;21.00;;;13.67;;
8060;SDS011;4073;42.626;25.386;2023-01-16T03:35:28;20.77;;;13.67;;
8060;SDS011;4073;42.626;25.386;2023-01-16T03:38:01;12.47;;;10.30;;
8060;SDS011;4073;42.626;25.386;2023-01-16T03:40:31;15.13;;;10.87;;
8060;SDS011;4073;42.626;25.386;2023-01-16T03:43:01;16.47;;;10.60;;
8060;SDS011;4073;42.626;25.386;2023-01-16T03:45:53;16.20;;;11.23;;
8060;SDS011;4073;42.626;25.386;2023-01-16T03:48:40;17.50;;;10.27;;
8060;SDS011;4073;42.626;25.386;2023-01-16T03:51:08;14.73;;;11.13;;
8060;SDS011;4073;42.626;25.386;2023-01-16T03:53:41;30.23;;;16.23;;
8060;SDS011;4073;42.626;25.386;2023-01-16T03:56:17;24.27;;;14.10;;
8060;SDS011;4073;42.626;25.386;2023-01-16T03:58:46;19.30;;;12.03;;
8060;SDS011;4073;42.626;25.386;2023-01-16T04:01:21;17.57;;;11.90;;
8060;SDS011;4073;42.626;25.386;2023-01-16T04:06:25;16.00;;;12.23;;
8060;SDS011;4073;42.626;25.386;2023-01-16T04:08:51;15.93;;;11.60;;
8060;SDS011;4073;42.626;25.386;2023-01-16T04:11:19;19.43;;;13.63;;
8060;SDS011;4073;42.626;25.386;2023-01-16T04:13:48;22.90;;;14.57;;
8060;SDS011;4073;42.626;25.386;2023-01-16T04:16:17;20.90;;;13.87;;
8060;SDS011;4073;42.626;25.386;2023-01-16T04:18:45;23.60;;;15.23;;
8060;SDS011;4073;42.626;25.386;2023-01-16T04:21:13;23.17;;;15.67;;
8060;SDS011;4073;42.626;25.386;2023-01-16T04:23:39;24.83;;;16.77;;
8060;SDS011;4073;42.626;25.386;2023-01-16T04:26:04;26.60;;;18.53;;
8060;SDS011;4073;42.626;25.386;2023-01-16T04:28:30;28.87;;;19.17;;
8060;SDS011;4073;42.626;25.386;2023-01-16T04:30:55;30.93;;;19.00;;
8060;SDS011;4073;42.626;25.386;2023-01-16T04:33:21;25.47;;;17.47;;
8060;SDS011;4073;42.626;25.386;2023-01-16T04:35:46;21.67;;;15.83;;
8060;SDS011;4073;42.626;25.386;2023-01-16T04:38:12;23.10;;;15.70;;
8060;SDS011;4073;42.626;25.386;2023-01-16T04:40:37;24.63;;;16.47;;
8060;SDS011;4073;42.626;25.386;2023-01-16T04:43:03;21.77;;;15.30;;
8060;SDS011;4073;42.626;25.386;2023-01-16T04:45:28;23.10;;;15.33;;
8060;SDS011;4073;42.626;25.386;2023-01-16T04:47:54;18.00;;;12.53;;
8060;SDS011;4073;42.626;25.386;2023-01-16T04:50:19;21.57;;;14.03;;
8060;SDS011;4073;42.626;25.386;2023-01-16T04:52:45;20.20;;;13.87;;
8060;SDS011;4073;42.626;25.386;2023-01-16T04:55:11;21.87;;;14.70;;
8060;SDS011;4073;42.626;25.386;2023-01-16T04:57:37;19.20;;;14.50;;
8060;SDS011;4073;42.626;25.386;2023-01-16T05:00:03;23.17;;;17.10;;
8060;SDS011;4073;42.626;25.386;2023-01-16T05:02:30;29.43;;;18.97;;
8060;SDS011;4073;42.626;25.386;2023-01-16T05:04:56;24.43;;;17.53;;
8060;SDS011;4073;42.626;25.386;2023-01-16T05:07:21;21.60;;;16.10;;
8060;SDS011;4073;42.626;25.386;2023-01-16T05:09:47;22.50;;;16.70;;
8060;SDS011;4073;42.626;25.386;2023-01-16T05:12:12;28.63;;;21.83;;
8060;SDS011;4073;42.626;25.386;2023-01-16T05:14:37;46.37;;;31.27;;
8060;SDS011;4073;42.626;25.386;2023-01-16T05:17:03;36.03;;;26.60;;
8060;SDS011;4073;42.626;25.386;2023-01-16T05:19:28;34.13;;;25.87;;
8060;SDS011;4073;42.626;25.386;2023-01-16T05:21:54;46.83;;;33.63;;
8060;SDS011;4073;42.626;25.386;2023-01-16T05:24:19;39.47;;;27.70;;
8060;SDS011;4073;42.626;25.386;2023-01-16T05:26:44;38.97;;;30.67;;
8060;SDS011;4073;42.626;25.386;2023-01-16T05:29:10;35.70;;;25.30;;
8060;SDS011;4073;42.626;25.386;2023-01-16T05:31:35;36.20;;;24.87;;
8060;SDS011;4073;42.626;25.386;2023-01-16T05:34:01;31.10;;;23.23;;
8060;SDS011;4073;42.626;25.386;2023-01-16T05:36:27;33.43;;;23.70;;
8060;SDS011;4073;42.626;25.386;2023-01-16T05:38:52;31.53;;;22.63;;
8060;SDS011;4073;42.626;25.386;2023-01-16T05:41:19;30.57;;;23.20;;
8060;SDS011;4073;42.626;25.386;2023-01-16T05:43:45;27.33;;;22.07;;
8060;SDS011;4073;42.626;25.386;2023-01-16T05:46:10;28.87;;;21.37;;
8060;SDS011;4073;42.626;25.386;2023-01-16T05:48:35;28.07;;;18.77;;
8060;SDS011;4073;42.626;25.386;2023-01-16T05:51:02;32.97;;;19.73;;
8060;SDS011;4073;42.626;25.386;2023-01-16T05:53:28;30.40;;;20.03;;
8060;SDS011;4073;42.626;25.386;2023-01-16T05:55:55;28.30;;;20.07;;
8060;SDS011;4073;42.626;25.386;2023-01-16T05:58:21;31.13;;;20.73;;
8060;SDS011;4073;42.626;25.386;2023-01-16T06:00:47;31.30;;;21.73;;
8060;SDS011;4073;42.626;25.386;2023-01-16T06:03:13;27.50;;;20.00;;
8060;SDS011;4073;42.626;25.386;2023-01-16T06:05:40;25.00;;;18.40;;
8060;SDS011;4073;42.626;25.386;2023-01-16T06:08:06;30.97;;;19.83;;
8060;SDS011;4073;42.626;25.386;2023-01-16T06:10:32;28.43;;;18.50;;
8060;SDS011;4073;42.626;25.386;2023-01-16T06:12:57;24.13;;;17.87;;
8060;SDS011;4073;42.626;25.386;2023-01-16T06:15:25;26.20;;;17.97;;
8060;SDS011;4073;42.626;25.386;2023-01-16T06:17:51;23.70;;;17.37;;
8060;SDS011;4073;42.626;25.386;2023-01-16T06:20:18;26.73;;;18.40;;
8060;SDS011;4073;42.626;25.386;2023-01-16T06:22:44;27.40;;;20.87;;
8060;SDS011;4073;42.626;25.386;2023-01-16T06:25:10;26.00;;;20.20;;
8060;SDS011;4073;42.626;25.386;2023-01-16T06:27:35;27.03;;;21.33;;
8060;SDS011;4073;42.626;25.386;2023-01-16T06:30:01;37.27;;;23.07;;
8060;SDS011;4073;42.626;25.386;2023-01-16T06:32:27;30.70;;;21.27;;
8060;SDS011;4073;42.626;25.386;2023-01-16T06:34:53;35.53;;;22.47;;
8060;SDS011;4073;42.626;25.386;2023-01-16T06:37:18;39.87;;;26.17;;
8060;SDS011;4073;42.626;25.386;2023-01-16T06:39:44;32.43;;;24.20;;
8060;SDS011;4073;42.626;25.386;2023-01-16T06:42:09;30.70;;;25.37;;
8060;SDS011;4073;42.626;25.386;2023-01-16T06:44:34;41.57;;;28.37;;
8060;SDS011;4073;42.626;25.386;2023-01-16T06:47:00;40.37;;;29.30;;
8060;SDS011;4073;42.626;25.386;2023-01-16T06:49:26;38.30;;;26.67;;
8060;SDS011;4073;42.626;25.386;2023-01-16T06:51:52;37.67;;;27.03;;
8060;SDS011;4073;42.626;25.386;2023-01-16T06:54:17;28.60;;;20.63;;
8060;SDS011;4073;42.626;25.386;2023-01-16T06:56:43;31.70;;;22.90;;
8060;SDS011;4073;42.626;25.386;2023-01-16T06:59:08;28.40;;;21.40;;
8060;SDS011;4073;42.626;25.386;2023-01-16T07:01:34;30.93;;;21.33;;
8060;SDS011;4073;42.626;25.386;2023-01-16T07:04:00;32.40;;;23.60;;
8060;SDS011;4073;42.626;25.386;2023-01-16T07:06:25;27.87;;;19.83;;
8060;SDS011;4073;42.626;25.386;2023-01-16T07:08:51;27.73;;;22.67;;
8060;SDS011;4073;42.626;25.386;2023-01-16T07:11:17;28.37;;;20.20;;
8060;SDS011;4073;42.626;25.386;2023-01-16T07:13:43;31.67;;;22.57;;
8060;SDS011;4073;42.626;25.386;2023-01-16T07:16:10;27.60;;;19.87;;
8060;SDS011;4073;42.626;25.386;2023-01-16T07:18:55;26.60;;;20.23;;
8060;SDS011;4073;42.626;25.386;2023-01-16T07:21:39;25.37;;;18.57;;
8060;SDS011;4073;42.626;25.386;2023-01-16T07:24:25;26.27;;;20.27;;
8060;SDS011;4073;42.626;25.386;2023-01-16T07:26:58;25.03;;;19.77;;
8060;SDS011;4073;42.626;25.386;2023-01-16T07:29:26;29.57;;;20.53;;
8060;SDS011;4073;42.626;25.386;2023-01-16T07:31:55;25.40;;;20.43;;
8060;SDS011;4073;42.626;25.386;2023-01-16T07:34:22;23.13;;;17.50;;
8060;SDS011;4073;42.626;25.386;2023-01-16T07:36:48;22.20;;;18.20;;
8060;SDS011;4073;42.626;25.386;2023-01-16T07:39:13;27.70;;;22.13;;
8060;SDS011;4073;42.626;25.386;2023-01-16T07:41:39;22.13;;;17.27;;
8060;SDS011;4073;42.626;25.386;2023-01-16T07:44:04;24.93;;;19.17;;
8060;SDS011;4073;42.626;25.386;2023-01-16T07:46:31;21.47;;;15.43;;
8060;SDS011;4073;42.626;25.386;2023-01-16T07:48:57;23.27;;;17.50;;
8060;SDS011;4073;42.626;25.386;2023-01-16T07:51:23;22.87;;;17.20;;
8060;SDS011;4073;42.626;25.386;2023-01-16T07:53:49;18.63;;;13.83;;
8060;SDS011;4073;42.626;25.386;2023-01-16T07:56:14;15.80;;;13.47;;
8060;SDS011;4073;42.626;25.386;2023-01-16T07:58:40;18.77;;;14.07;;
8060;SDS011;4073;42.626;25.386;2023-01-16T08:01:08;15.33;;;13.60;;
8060;SDS011;4073;42.626;25.386;2023-01-16T08:03:34;19.13;;;15.20;;
8060;SDS011;4073;42.626;25.386;2023-01-16T08:06:00;16.63;;;14.20;;
8060;SDS011;4073;42.626;25.386;2023-01-16T08:08:27;17.87;;;14.47;;
8060;SDS011;4073;42.626;25.386;2023-01-16T08:10:55;17.97;;;13.50;;
8060;SDS011;4073;42.626;25.386;2023-01-16T08:13:22;18.50;;;15.50;;
8060;SDS011;4073;42.626;25.386;2023-01-16T08:15:48;18.53;;;12.80;;
8060;SDS011;4073;42.626;25.386;2023-01-16T08:18:15;17.10;;;12.97;;
8060;SDS011;4073;42.626;25.386;2023-01-16T08:20:42;11.43;;;10.20;;
8060;SDS011;4073;42.626;25.386;2023-01-16T08:23:09;16.37;;;12.43;;
8060;SDS011;4073;42.626;25.386;2023-01-16T08:25:35;17.17;;;12.87;;
8060;SDS011;4073;42.626;25.386;2023-01-16T08:28:00;18.03;;;14.60;;
8060;SDS011;4073;42.626;25.386;2023-01-16T08:30:26;15.20;;;11.73;;
8060;SDS011;4073;42.626;25.386;2023-01-16T08:32:56;16.13;;;12.43;;
8060;SDS011;4073;42.626;25.386;2023-01-16T08:35:23;13.13;;;11.63;;
8060;SDS011;4073;42.626;25.386;2023-01-16T08:37:48;12.97;;;11.13;;
8060;SDS011;4073;42.626;25.386;2023-01-16T08:40:15;15.73;;;10.67;;
8060;SDS011;4073;42.626;25.386;2023-01-16T08:42:41;16.00;;;11.77;;
8060;SDS011;4073;42.626;25.386;2023-01-16T08:45:25;15.83;;;11.63;;
8060;SDS011;4073;42.626;25.386;2023-01-16T08:48:09;14.07;;;11.63;;
8060;SDS011;4073;42.626;25.386;2023-01-16T08:50:54;20.40;;;16.33;;
8060;SDS011;4073;42.626;25.386;2023-01-16T08:53:40;17.73;;;12.43;;
8060;SDS011;4073;42.626;25.386;2023-01-16T08:56:05;13.70;;;11.90;;
8060;SDS011;4073;42.626;25.386;2023-01-16T08:58:31;13.43;;;11.60;;
8060;SDS011;4073;42.626;25.386;2023-01-16T09:00:57;15.47;;;13.53;;
8060;SDS011;4073;42.626;25.386;2023-01-16T09:03:22;16.20;;;12.40;;
8060;SDS011;4073;42.626;25.386;2023-01-16T09:05:47;18.17;;;14.57;;
8060;SDS011;4073;42.626;25.386;2023-01-16T09:08:13;17.53;;;12.70;;
8060;SDS011;4073;42.626;25.386;2023-01-16T09:10:38;15.20;;;12.23;;
8060;SDS011;4073;42.626;25.386;2023-01-16T09:13:04;18.00;;;14.27;;
8060;SDS011;4073;42.626;25.386;2023-01-16T09:15:48;17.40;;;13.30;;
8060;SDS011;4073;42.626;25.386;2023-01-16T09:18:14;15.37;;;12.97;;
8060;SDS011;4073;42.626;25.386;2023-01-16T09:20:40;15.30;;;13.13;;
8060;SDS011;4073;42.626;25.386;2023-01-16T09:23:05;14.97;;;12.33;;
8060;SDS011;4073;42.626;25.386;2023-01-16T09:25:31;14.90;;;13.27;;
8060;SDS011;4073;42.626;25.386;2023-01-16T09:27:57;15.13;;;12.60;;
8060;SDS011;4073;42.626;25.386;2023-01-16T09:30:23;13.53;;;11.80;;
8060;SDS011;4073;42.626;25.386;2023-01-16T09:32:49;13.17;;;11.80;;
8060;SDS011;4073;42.626;25.386;2023-01-16T09:35:14;11.33;;;9.83;;
8060;SDS011;4073;42.626;25.386;2023-01-16T09:37:42;10.97;;;9.53;;
8060;SDS011;4073;42.626;25.386;2023-01-16T09:40:12;10.37;;;9.27;;
8060;SDS011;4073;42.626;25.386;2023-01-16T09:45:40;12.50;;;11.20;;
8060;SDS011;4073;42.626;25.386;2023-01-16T09:48:13;14.33;;;10.20;;
8060;SDS011;4073;42.626;25.386;2023-01-16T09:50:46;14.07;;;10.83;;
8060;SDS011;4073;42.626;25.386;2023-01-16T09:53:20;11.33;;;10.13;;
8060;SDS011;4073;42.626;25.386;2023-01-16T09:56:15;11.17;;;9.40;;
8060;SDS011;4073;42.626;25.386;2023-01-16T10:04:39;11.13;;;9.67;;
8060;SDS011;4073;42.626;25.386;2023-01-16T10:12:42;12.30;;;11.03;;
8060;SDS011;4073;42.626;25.386;2023-01-16T10:15:42;9.27;;;8.07;;
8060;SDS011;4073;42.626;25.386;2023-01-16T10:18:25;11.17;;;8.93;;
8060;SDS011;4073;42.626;25.386;2023-01-16T10:24:00;12.23;;;10.97;;
8060;SDS011;4073;42.626;25.386;2023-01-16T10:29:28;12.07;;;10.80;;
8060;SDS011;4073;42.626;25.386;2023-01-16T10:34:59;11.33;;;10.10;;
8060;SDS011;4073;42.626;25.386;2023-01-16T10:37:28;12.67;;;11.37;;
8060;SDS011;4073;42.626;25.386;2023-01-16T10:39:55;13.70;;;10.97;;
8060;SDS011;4073;42.626;25.386;2023-01-16T10:42:32;12.70;;;10.30;;
8060;SDS011;4073;42.626;25.386;2023-01-16T10:45:22;17.07;;;13.03;;
8060;SDS011;4073;42.626;25.386;2023-01-16T10:48:09;13.37;;;11.50;;
8060;SDS011;4073;42.626;25.386;2023-01-16T10:50:55;12.30;;;10.10;;
8060;SDS011;4073;42.626;25.386;2023-01-16T10:53:21;10.50;;;9.37;;
8060;SDS011;4073;42.626;25.386;2023-01-16T10:55:47;14.10;;;10.00;;
8060;SDS011;4073;42.626;25.386;2023-01-16T11:01:00;13.60;;;11.57;;
8060;SDS011;4073;42.626;25.386;2023-01-16T11:03:48;12.97;;;11.57;;
8060;SDS011;4073;42.626;25.386;2023-01-16T11:06:20;13.60;;;12.17;;
8060;SDS011;4073;42.626;25.386;2023-01-16T11:09:14;13.00;;;11.17;;
8060;SDS011;4073;42.626;25.386;2023-01-16T11:11:42;15.47;;;12.40;;
8060;SDS011;4073;42.626;25.386;2023-01-16T11:14:45;9.57;;;8.50;;
8060;SDS011;4073;42.626;25.386;2023-01-16T11:17:30;10.30;;;9.07;;
8060;SDS011;4073;42.626;25.386;2023-01-16T11:20:17;10.57;;;9.57;;
8060;SDS011;4073;42.626;25.386;2023-01-16T11:23:00;13.80;;;10.80;;
8060;SDS011;4073;42.626;25.386;2023-01-16T11:25:29;10.63;;;9.63;;
8060;SDS011;4073;42.626;25.386;2023-01-16T11:27:57;10.93;;;8.30;;
8060;SDS011;4073;42.626;25.386;2023-01-16T11:30:37;9.73;;;8.73;;
8060;SDS011;4073;42.626;25.386;2023-01-16T11:33:08;9.37;;;8.40;;
8060;SDS011;4073;42.626;25.386;2023-01-16T11:35:46;9.57;;;8.40;;
8060;SDS011;4073;42.626;25.386;2023-01-16T11:38:24;8.27;;;7.43;;
8060;SDS011;4073;42.626;25.386;2023-01-16T11:40:57;10.67;;;7.83;;
8060;SDS011;4073;42.626;25.386;2023-01-16T11:43:26;12.23;;;10.93;;
8060;SDS011;4073;42.626;25.386;2023-01-16T11:48:54;16.80;;;15.03;;
8060;SDS011;4073;42.626;25.386;2023-01-16T11:51:30;13.70;;;12.23;;
8060;SDS011;4073;42.626;25.386;2023-01-16T11:53:58;14.70;;;11.53;;
8060;SDS011;4073;42.626;25.386;2023-01-16T12:08:37;11.40;;;10.20;;
8060;SDS011;4073;42.626;25.386;2023-01-16T12:11:08;18.83;;;15.40;;
8060;SDS011;4073;42.626;25.386;2023-01-16T12:13:40;12.80;;;10.37;;
8060;SDS011;4073;42.626;25.386;2023-01-16T12:24:43;14.40;;;11.67;;
8060;SDS011;4073;42.626;25.386;2023-01-16T12:33:13;12.17;;;10.07;;
8060;SDS011;4073;42.626;25.386;2023-01-16T12:41:28;20.57;;;14.10;;
8060;SDS011;4073;42.626;25.386;2023-01-16T12:47:17;15.83;;;12.37;;
8060;SDS011;4073;42.626;25.386;2023-01-16T12:50:00;16.00;;;12.83;;
8060;SDS011;4073;42.626;25.386;2023-01-16T12:58:23;21.27;;;15.33;;
8060;SDS011;4073;42.626;25.386;2023-01-16T13:03:37;15.67;;;13.07;;
8060;SDS011;4073;42.626;25.386;2023-01-16T13:06:17;14.87;;;12.57;;
8060;SDS011;4073;42.626;25.386;2023-01-16T13:08:50;19.83;;;15.10;;
8060;SDS011;4073;42.626;25.386;2023-01-16T13:11:30;14.20;;;12.37;;
8060;SDS011;4073;42.626;25.386;2023-01-16T13:14:20;13.27;;;11.73;;
8060;SDS011;4073;42.626;25.386;2023-01-16T13:17:21;15.77;;;12.90;;
8060;SDS011;4073;42.626;25.386;2023-01-16T13:19:48;21.37;;;14.20;;
8060;SDS011;4073;42.626;25.386;2023-01-16T13:26:08;15.40;;;12.40;;
8060;SDS011;4073;42.626;25.386;2023-01-16T13:30:41;12.67;;;11.30;;
8060;SDS011;4073;42.626;25.386;2023-01-16T13:33:11;13.07;;;10.50;;
8060;SDS011;4073;42.626;25.386;2023-01-16T13:41:30;13.43;;;9.70;;
8060;SDS011;4073;42.626;25.386;2023-01-16T13:43:59;12.37;;;10.13;;
8060;SDS011;4073;42.626;25.386;2023-01-16T13:47:06;13.53;;;8.67;;
8060;SDS011;4073;42.626;25.386;2023-01-16T13:49:34;13.07;;;10.00;;
8060;SDS011;4073;42.626;25.386;2023-01-16T13:52:00;10.57;;;9.40;;
8060;SDS011;4073;42.626;25.386;2023-01-16T13:54:38;12.67;;;10.33;;
8060;SDS011;4073;42.626;25.386;2023-01-16T13:57:08;13.73;;;9.03;;
8060;SDS011;4073;42.626;25.386;2023-01-16T13:59:50;11.77;;;9.10;;
8060;SDS011;4073;42.626;25.386;2023-01-16T14:02:39;11.33;;;10.13;;
8060;SDS011;4073;42.626;25.386;2023-01-16T14:10:50;18.00;;;13.97;;
8060;SDS011;4073;42.626;25.386;2023-01-16T14:13:36;15.40;;;12.13;;
8060;SDS011;4073;42.626;25.386;2023-01-16T14:24:02;24.00;;;17.57;;
8060;SDS011;4073;42.626;25.386;2023-01-16T14:26:50;19.90;;;16.13;;
8060;SDS011;4073;42.626;25.386;2023-01-16T14:29:36;25.33;;;16.03;;
8060;SDS011;4073;42.626;25.386;2023-01-16T14:34:57;21.87;;;16.80;;
8060;SDS011;4073;42.626;25.386;2023-01-16T14:39:55;18.50;;;14.33;;
8060;SDS011;4073;42.626;25.386;2023-01-16T14:42:31;21.20;;;17.80;;
8060;SDS011;4073;42.626;25.386;2023-01-16T14:53:50;23.33;;;19.37;;
8060;SDS011;4073;42.626;25.386;2023-01-16T14:56:36;25.10;;;17.77;;
8060;SDS011;4073;42.626;25.386;2023-01-16T15:02:00;21.63;;;16.33;;
8060;SDS011;4073;42.626;25.386;2023-01-16T15:04:55;22.43;;;17.07;;
8060;SDS011;4073;42.626;25.386;2023-01-16T15:10:03;17.17;;;14.40;;
8060;SDS011;4073;42.626;25.386;2023-01-16T15:12:35;20.20;;;16.50;;
8060;SDS011;4073;42.626;25.386;2023-01-16T15:15:02;27.63;;;19.03;;
8060;SDS011;4073;42.626;25.386;2023-01-16T15:17:30;59.90;;;43.17;;
8060;SDS011;4073;42.626;25.386;2023-01-16T15:23:15;19.77;;;15.73;;
8060;SDS011;4073;42.626;25.386;2023-01-16T15:25:45;17.27;;;14.37;;
8060;SDS011;4073;42.626;25.386;2023-01-16T15:31:15;25.37;;;19.87;;
8060;SDS011;4073;42.626;25.386;2023-01-16T15:33:43;20.00;;;15.90;;
8060;SDS011;4073;42.626;25.386;2023-01-16T15:36:18;19.70;;;16.20;;
8060;SDS011;4073;42.626;25.386;2023-01-16T15:41:30;22.07;;;19.67;;
8060;SDS011;4073;42.626;25.386;2023-01-16T15:44:23;29.47;;;25.27;;
8060;SDS011;4073;42.626;25.386;2023-01-16T15:50:24;27.90;;;20.87;;
8060;SDS011;4073;42.626;25.386;2023-01-16T15:52:57;24.43;;;20.80;;
8060;SDS011;4073;42.626;25.386;2023-01-16T15:55:25;34.93;;;26.63;;
8060;SDS011;4073;42.626;25.386;2023-01-16T15:57:54;41.93;;;30.57;;
8060;SDS011;4073;42.626;25.386;2023-01-16T16:00:24;42.43;;;33.40;;
8060;SDS011;4073;42.626;25.386;2023-01-16T16:03:00;47.03;;;34.37;;
8060;SDS011;4073;42.626;25.386;2023-01-16T16:05:35;46.57;;;35.93;;
8060;SDS011;4073;42.626;25.386;2023-01-16T16:08:02;47.07;;;33.87;;
8060;SDS011;4073;42.626;25.386;2023-01-16T16:10:31;45.93;;;34.40;;
8060;SDS011;4073;42.626;25.386;2023-01-16T16:13:20;55.63;;;38.63;;
8060;SDS011;4073;42.626;25.386;2023-01-16T16:15:53;49.53;;;37.70;;
8060;SDS011;4073;42.626;25.386;2023-01-16T16:18:57;48.10;;;36.90;;
8060;SDS011;4073;42.626;25.386;2023-01-16T16:21:31;36.37;;;28.70;;
8060;SDS011;4073;42.626;25.386;2023-01-16T16:24:28;46.83;;;36.73;;
8060;SDS011;4073;42.626;25.386;2023-01-16T16:26:58;38.37;;;31.73;;
8060;SDS011;4073;42.626;25.386;2023-01-16T16:29:31;53.70;;;39.07;;
8060;SDS011;4073;42.626;25.386;2023-01-16T16:32:02;57.27;;;44.53;;
8060;SDS011;4073;42.626;25.386;2023-01-16T16:34:29;63.17;;;49.00;;
8060;SDS011;4073;42.626;25.386;2023-01-16T16:36:56;73.60;;;58.13;;
8060;SDS011;4073;42.626;25.386;2023-01-16T16:41:58;57.67;;;44.67;;
8060;SDS011;4073;42.626;25.386;2023-01-16T16:44:47;50.57;;;37.13;;
8060;SDS011;4073;42.626;25.386;2023-01-16T16:47:34;47.97;;;36.07;;
8060;SDS011;4073;42.626;25.386;2023-01-16T16:50:05;52.00;;;38.70;;
8060;SDS011;4073;42.626;25.386;2023-01-16T16:52:47;49.57;;;39.13;;
8060;SDS011;4073;42.626;25.386;2023-01-16T16:55:30;61.07;;;47.20;;
8060;SDS011;4073;42.626;25.386;2023-01-16T16:57:59;61.13;;;48.97;;
8060;SDS011;4073;42.626;25.386;2023-01-16T17:00:28;53.57;;;41.87;;
8060;SDS011;4073;42.626;25.386;2023-01-16T17:05:47;61.40;;;46.73;;
8060;SDS011;4073;42.626;25.386;2023-01-16T17:08:17;61.07;;;40.10;;
8060;SDS011;4073;42.626;25.386;2023-01-16T17:10:44;50.67;;;38.33;;
8060;SDS011;4073;42.626;25.386;2023-01-16T17:13:14;56.50;;;39.90;;
8060;SDS011;4073;42.626;25.386;2023-01-16T17:15:41;51.77;;;38.60;;
8060;SDS011;4073;42.626;25.386;2023-01-16T17:18:10;58.17;;;39.97;;
8060;SDS011;4073;42.626;25.386;2023-01-16T17:20:36;41.17;;;31.87;;
8060;SDS011;4073;42.626;25.386;2023-01-16T17:23:07;34.30;;;25.43;;
8060;SDS011;4073;42.626;25.386;2023-01-16T17:25:37;33.43;;;27.17;;
8060;SDS011;4073;42.626;25.386;2023-01-16T17:28:02;31.83;;;26.67;;
8060;SDS011;4073;42.626;25.386;2023-01-16T17:30:28;40.33;;;34.17;;
8060;SDS011;4073;42.626;25.386;2023-01-16T17:33:04;44.80;;;31.63;;
8060;SDS011;4073;42.626;25.386;2023-01-16T17:35:39;39.40;;;27.87;;
8060;SDS011;4073;42.626;25.386;2023-01-16T17:38:13;37.63;;;28.83;;
8060;SDS011;4073;42.626;25.386;2023-01-16T17:40:42;39.20;;;27.33;;
8060;SDS011;4073;42.626;25.386;2023-01-16T17:43:13;36.07;;;26.87;;
8060;SDS011;4073;42.626;25.386;2023-01-16T17:45:58;41.07;;;29.73;;
8060;SDS011;4073;42.626;25.386;2023-01-16T17:48:28;38.93;;;29.13;;
8060;SDS011;4073;42.626;25.386;2023-01-16T17:50:55;36.57;;;29.77;;
8060;SDS011;4073;42.626;25.386;2023-01-16T17:53:23;40.00;;;33.03;;